Leverett, Massachusetts
Current Conditions -  °F | °C
As of 3:52 AM on Sunday 26 Oct 2014 (Local Time) from KORE Reporting Station
Haze Haze  
Wind Chill: 41°   Ceiling: Unl
Heat Index: 41°   Visibility: 5mi
Dew Point: 41°   Wind: 3mph
Humidity: 100%   Direction: 200°SSW
Pressure: 29.47"   Gusts: NA
Location:  42.45°N, 72.5°W
Report Text: KORE 260752Z AUTO 20003KT 5SM BR CLR 05/05 A2947 RMK AO2 SLP980 T00500050
Loading
Personal Weather Stations






























Interactive Weather Map
Tropical Storm Tracking
New forecast layout! Learn more

10-Day Weather Forecast

Advertisements
Track Severe Weather on mobile